createdAt,value
2018-05-16T00:01:40.987Z,7.87
2018-05-16T00:04:08.583Z,7.80
2018-05-16T00:06:36.135Z,7.27
2018-05-16T00:09:03.734Z,10.20
2018-05-16T00:11:31.278Z,8.43
2018-05-16T00:13:58.860Z,8.77
2018-05-16T00:16:26.434Z,8.27
2018-05-16T00:18:54.002Z,7.20
2018-05-16T00:21:21.540Z,7.87
2018-05-16T00:23:49.081Z,8.80
2018-05-16T00:26:16.627Z,6.70
2018-05-16T00:28:44.567Z,6.10
2018-05-16T00:31:12.182Z,7.23
2018-05-16T00:33:39.718Z,8.77
2018-05-16T00:36:07.310Z,7.97
2018-05-16T00:38:34.838Z,7.80
2018-05-16T00:41:02.434Z,7.03
2018-05-16T00:43:30.025Z,7.57
2018-05-16T00:45:57.637Z,8.43
2018-05-16T00:48:25.186Z,8.57
2018-05-16T00:51:04.503Z,7.83
2018-05-16T00:53:32.081Z,8.73
2018-05-16T00:55:59.674Z,7.60
2018-05-16T00:58:27.220Z,7.93
2018-05-16T01:00:54.795Z,7.83
2018-05-16T01:03:22.345Z,6.10
2018-05-16T01:05:49.963Z,6.80
2018-05-16T01:08:17.578Z,6.47
2018-05-16T01:10:45.199Z,6.47
2018-05-16T01:13:12.742Z,7.97
2018-05-16T01:15:40.325Z,7.30
2018-05-16T01:18:07.854Z,6.00
2018-05-16T01:20:35.479Z,7.90
2018-05-16T01:23:03.058Z,7.47
2018-05-16T01:25:30.660Z,6.27
2018-05-16T01:27:58.242Z,6.73
2018-05-16T01:30:25.853Z,6.90
2018-05-16T01:32:53.407Z,7.87
2018-05-16T01:35:21.010Z,7.83
2018-05-16T01:37:48.540Z,6.50
2018-05-16T01:40:16.166Z,7.57
2018-05-16T01:42:43.760Z,7.47
2018-05-16T01:45:11.399Z,8.30
2018-05-16T01:47:39.000Z,8.20
2018-05-16T01:50:06.556Z,10.67
2018-05-16T01:52:34.135Z,8.37
2018-05-16T01:55:01.731Z,12.20
2018-05-16T01:57:29.277Z,9.20
2018-05-16T01:59:56.915Z,10.03
2018-05-16T02:02:24.502Z,10.33
2018-05-16T02:04:52.081Z,10.47
2018-05-16T02:07:19.636Z,9.23
2018-05-16T02:09:47.245Z,8.87
2018-05-16T02:12:14.849Z,9.17
2018-05-16T02:14:42.419Z,10.77
2018-05-16T02:17:09.990Z,9.13
2018-05-16T02:19:37.556Z,8.50
2018-05-16T02:22:05.165Z,9.57
2018-05-16T02:24:32.720Z,10.17
2018-05-16T02:27:00.273Z,11.60
2018-05-16T02:29:28.253Z,14.00
2018-05-16T02:31:55.899Z,12.80
2018-05-16T02:34:23.494Z,14.77
2018-05-16T02:36:51.099Z,16.80
2018-05-16T02:39:18.641Z,15.70
2018-05-16T02:41:46.222Z,15.73
2018-05-16T02:44:13.778Z,17.30
2018-05-16T02:46:41.379Z,15.63
2018-05-16T02:49:08.946Z,16.30
2018-05-16T02:51:36.569Z,17.20
2018-05-16T02:54:04.524Z,19.50
2018-05-16T02:56:32.122Z,15.47
2018-05-16T02:58:59.679Z,17.87
2018-05-16T03:01:27.297Z,15.90
2018-05-16T03:03:54.885Z,15.03
2018-05-16T03:06:22.440Z,15.50
2018-05-16T03:08:50.023Z,14.50
2018-05-16T03:11:17.616Z,15.10
2018-05-16T03:13:45.166Z,18.00
2018-05-16T03:16:12.740Z,13.73
2018-05-16T03:18:40.326Z,13.83
2018-05-16T03:21:07.924Z,13.20
2018-05-16T03:23:35.465Z,17.40
2018-05-16T03:26:03.053Z,14.60
2018-05-16T03:28:30.603Z,15.97
2018-05-16T03:30:58.189Z,15.00
2018-05-16T03:33:25.789Z,12.73
2018-05-16T03:35:53.590Z,13.30
2018-05-16T03:38:21.213Z,13.40
2018-05-16T03:40:48.745Z,13.20
2018-05-16T03:43:16.335Z,13.07
2018-05-16T03:45:43.877Z,13.20
2018-05-16T03:48:11.430Z,13.93
2018-05-16T03:50:39.400Z,14.33
2018-05-16T03:53:07.384Z,13.80
2018-05-16T03:55:34.938Z,15.03
2018-05-16T03:58:23.502Z,15.20
2018-05-16T04:01:02.750Z,14.60
2018-05-16T04:03:42.053Z,16.07
2018-05-16T04:06:09.701Z,14.87
2018-05-16T04:08:37.728Z,13.30
2018-05-16T04:11:05.257Z,13.40
2018-05-16T04:13:32.883Z,14.17
2018-05-16T04:16:00.424Z,14.87
2018-05-16T04:18:28.013Z,17.57
2018-05-16T04:20:55.958Z,14.90
2018-05-16T04:23:23.591Z,15.07
2018-05-16T04:25:51.121Z,18.30
2018-05-16T04:28:18.705Z,15.13
2018-05-16T04:30:46.311Z,14.73
2018-05-16T04:33:13.873Z,16.43
2018-05-16T04:35:41.797Z,13.53
2018-05-16T04:38:09.397Z,13.10
2018-05-16T04:40:37.453Z,13.00
2018-05-16T04:43:05.445Z,12.13
2018-05-16T04:45:33.065Z,11.97
2018-05-16T04:48:00.682Z,12.60
2018-05-16T04:50:28.223Z,15.57
2018-05-16T04:52:55.856Z,13.53
2018-05-16T04:55:23.354Z,13.77
2018-05-16T04:57:50.909Z,13.93
2018-05-16T05:00:18.458Z,14.50
2018-05-16T05:02:46.051Z,14.13
2018-05-16T05:05:13.587Z,14.20
2018-05-16T05:07:41.271Z,14.67
2018-05-16T05:10:08.845Z,17.10
2018-05-16T05:12:36.579Z,14.93
2018-05-16T05:15:04.136Z,15.87
2018-05-16T05:17:31.734Z,16.17
2018-05-16T05:19:59.328Z,15.60
2018-05-16T05:22:26.990Z,13.07
2018-05-16T05:24:54.543Z,14.13
2018-05-16T05:27:22.111Z,12.40
2018-05-16T05:29:49.721Z,11.70
2018-05-16T05:32:17.425Z,10.80
2018-05-16T05:34:45.063Z,12.50
2018-05-16T05:37:12.611Z,13.27
2018-05-16T05:39:40.230Z,11.80
2018-05-16T05:42:07.787Z,11.60
2018-05-16T05:44:35.354Z,10.97
2018-05-16T05:47:02.899Z,12.97
2018-05-16T05:49:30.522Z,11.67
2018-05-16T05:51:58.137Z,12.03
2018-05-16T05:54:25.705Z,11.27
2018-05-16T05:56:53.277Z,10.60
2018-05-16T05:59:20.893Z,10.77
2018-05-16T06:01:48.438Z,9.40
2018-05-16T06:04:16.022Z,11.10
2018-05-16T06:06:43.551Z,9.03
2018-05-16T06:09:11.131Z,8.03
2018-05-16T06:11:38.698Z,7.50
2018-05-16T06:14:06.244Z,9.10
2018-05-16T06:16:33.841Z,7.23
2018-05-16T06:19:01.470Z,7.53
2018-05-16T06:21:29.045Z,7.83
2018-05-16T06:23:56.653Z,8.17
2018-05-16T06:26:24.198Z,7.33
2018-05-16T06:28:51.772Z,8.47
2018-05-16T06:31:19.331Z,6.97
2018-05-16T06:33:46.947Z,7.07
2018-05-16T06:36:14.523Z,7.53
2018-05-16T06:38:42.488Z,6.83
2018-05-16T06:41:10.038Z,7.00
2018-05-16T06:43:37.738Z,7.90
2018-05-16T06:46:05.476Z,7.60
2018-05-16T06:48:33.061Z,11.07
2018-05-16T06:51:00.644Z,7.03
2018-05-16T06:53:28.260Z,7.70
2018-05-16T06:56:00.335Z,6.90
2018-05-16T06:58:27.911Z,6.97
2018-05-16T07:00:55.483Z,8.00
2018-05-16T07:03:23.110Z,7.33
2018-05-16T07:05:50.694Z,8.20
2018-05-16T07:08:18.265Z,7.67
2018-05-16T07:10:45.838Z,8.47
2018-05-16T07:13:13.393Z,9.23
2018-05-16T07:15:41.035Z,10.97
2018-05-16T07:18:08.583Z,9.27
2018-05-16T07:20:36.162Z,10.53
2018-05-16T07:23:03.708Z,11.27
2018-05-16T07:25:31.350Z,10.97
2018-05-16T07:27:58.946Z,11.63
2018-05-16T07:30:26.571Z,13.33
2018-05-16T07:32:54.111Z,14.50
2018-05-16T07:35:21.689Z,11.87
2018-05-16T07:37:49.242Z,13.80
2018-05-16T07:40:16.852Z,11.10
2018-05-16T07:42:44.465Z,11.60
2018-05-16T07:45:12.053Z,12.30
2018-05-16T07:47:39.649Z,13.63
2018-05-16T07:50:07.227Z,12.67
2018-05-16T07:52:34.801Z,11.97
2018-05-16T07:55:02.373Z,14.53
2018-05-16T07:57:29.931Z,14.27
2018-05-16T07:59:57.513Z,13.83
2018-05-16T08:02:25.062Z,15.00
2018-05-16T08:04:52.688Z,14.80
2018-05-16T08:07:20.274Z,14.00
2018-05-16T08:09:47.862Z,16.53
2018-05-16T08:12:15.470Z,17.00
2018-05-16T08:14:43.059Z,16.63
2018-05-16T08:17:10.651Z,18.33
2018-05-16T08:19:38.231Z,17.87
2018-05-16T08:22:05.805Z,19.07
2018-05-16T08:24:33.389Z,17.57
2018-05-16T08:27:01.022Z,16.40
2018-05-16T08:29:28.591Z,16.67
2018-05-16T08:31:56.190Z,16.07
2018-05-16T08:34:23.767Z,17.03
2018-05-16T08:36:51.485Z,18.73
2018-05-16T08:39:19.009Z,16.77
2018-05-16T08:41:46.566Z,16.00
2018-05-16T08:44:14.166Z,16.03
2018-05-16T08:46:41.867Z,14.77
2018-05-16T08:49:09.389Z,14.27
2018-05-16T08:51:36.962Z,13.83
2018-05-16T08:54:04.509Z,14.20
2018-05-16T08:56:32.122Z,14.60
2018-05-16T08:58:59.715Z,14.37
2018-05-16T09:01:27.294Z,15.10
2018-05-16T09:03:54.893Z,15.60
2018-05-16T09:06:22.527Z,15.73
2018-05-16T09:08:50.120Z,16.87
2018-05-16T09:11:17.749Z,14.00
2018-05-16T09:13:45.325Z,14.50
2018-05-16T09:16:13.286Z,17.07
2018-05-16T09:18:41.294Z,11.97
2018-05-16T09:21:08.934Z,11.20
2018-05-16T09:23:36.495Z,10.57
2018-05-16T09:26:04.078Z,12.20
2018-05-16T09:28:31.624Z,10.77
2018-05-16T09:30:59.197Z,10.73
2018-05-16T09:33:26.793Z,10.93
2018-05-16T09:35:54.384Z,9.40
2018-05-16T09:38:21.955Z,8.23
2018-05-16T09:40:49.567Z,8.67
2018-05-16T09:43:17.101Z,7.47
2018-05-16T09:45:45.716Z,9.00
2018-05-16T09:48:21.955Z,8.30
2018-05-16T09:50:49.563Z,8.63
2018-05-16T09:53:17.129Z,8.67
2018-05-16T09:55:44.735Z,7.27
2018-05-16T09:58:12.290Z,6.53
2018-05-16T10:00:39.865Z,6.10
2018-05-16T10:03:07.429Z,7.03
2018-05-16T10:05:35.022Z,6.07
2018-05-16T10:08:02.559Z,7.80
2018-05-16T10:10:30.197Z,5.90
2018-05-16T10:12:57.757Z,6.10
2018-05-16T10:15:25.367Z,5.60
2018-05-16T10:17:52.910Z,6.23
2018-05-16T10:20:20.606Z,6.07
2018-05-16T10:22:48.125Z,5.47
2018-05-16T10:25:15.924Z,4.57
2018-05-16T10:27:43.544Z,4.47
2018-05-16T10:30:11.113Z,4.87
2018-05-16T10:32:43.559Z,5.23
2018-05-16T10:35:11.546Z,5.60
2018-05-16T10:37:39.336Z,5.17
2018-05-16T10:40:06.932Z,4.63
2018-05-16T10:42:34.544Z,4.43
2018-05-16T10:45:02.190Z,5.20
2018-05-16T10:47:30.513Z,4.77
2018-05-16T10:49:59.912Z,4.63
2018-05-16T10:52:27.562Z,5.30
2018-05-16T10:54:55.451Z,5.53
2018-05-16T10:57:22.750Z,5.17
2018-05-16T10:59:50.319Z,4.97
2018-05-16T11:02:17.961Z,5.40
2018-05-16T11:04:45.504Z,4.50
2018-05-16T11:07:14.337Z,4.10
2018-05-16T11:09:41.874Z,3.90
2018-05-16T11:12:09.503Z,4.07
2018-05-16T11:14:37.129Z,4.10
2018-05-16T11:17:04.722Z,4.00
2018-05-16T11:19:32.307Z,4.00
2018-05-16T11:21:59.952Z,3.60
2018-05-16T11:24:27.520Z,4.00
2018-05-16T11:26:55.067Z,3.73
2018-05-16T11:29:23.522Z,4.07
2018-05-16T11:31:51.094Z,3.53
2018-05-16T11:34:19.038Z,4.03
2018-05-16T11:36:46.628Z,2.37
2018-05-16T11:39:14.202Z,6.20
2018-05-16T11:41:41.768Z,2.70
2018-05-16T11:44:09.342Z,3.93
2018-05-16T11:46:36.974Z,3.23
2018-05-16T11:49:04.539Z,2.70
2018-05-16T11:51:32.191Z,2.73
2018-05-16T11:53:59.726Z,2.90
2018-05-16T11:56:27.734Z,2.80
2018-05-16T11:58:56.386Z,3.83
2018-05-16T12:01:23.935Z,2.17
2018-05-16T12:03:52.293Z,3.13
2018-05-16T12:06:20.735Z,1.30
2018-05-16T12:08:49.939Z,1.87
2018-05-16T12:11:18.880Z,1.00
2018-05-16T12:13:46.482Z,0.90
2018-05-16T12:16:14.335Z,1.33
2018-05-16T12:18:42.368Z,4.33
2018-05-16T12:21:10.404Z,1.27
2018-05-16T12:23:38.016Z,2.37
2018-05-16T12:26:05.669Z,3.53
2018-05-16T12:28:33.229Z,3.23
2018-05-16T12:31:10.973Z,3.33
2018-05-16T12:33:38.647Z,3.30
2018-05-16T12:36:06.267Z,1.53
2018-05-16T12:38:33.854Z,3.53
2018-05-16T12:41:01.441Z,1.70
2018-05-16T12:43:31.893Z,1.10
2018-05-16T12:45:59.939Z,1.87
2018-05-16T12:48:27.506Z,2.60
2018-05-16T12:50:55.071Z,1.30
2018-05-16T12:53:22.653Z,1.97
2018-05-16T12:55:50.296Z,1.50
2018-05-16T12:58:17.993Z,1.50
2018-05-16T13:00:45.537Z,2.40
2018-05-16T13:03:13.218Z,1.20
2018-05-16T13:05:40.854Z,1.33
2018-05-16T13:08:08.542Z,1.40
2018-05-16T13:10:36.087Z,1.43
2018-05-16T13:13:03.796Z,1.40
2018-05-16T13:15:31.378Z,1.70
2018-05-16T13:17:59.023Z,1.83
2018-05-16T13:20:27.409Z,2.00
2018-05-16T13:23:01.326Z,2.00
2018-05-16T13:25:30.927Z,2.10
2018-05-16T13:27:59.019Z,2.50
2018-05-16T13:30:31.609Z,3.20
2018-05-16T13:33:07.947Z,2.10
2018-05-16T13:35:38.969Z,3.27
2018-05-16T13:38:09.173Z,2.20
2018-05-16T13:40:37.321Z,2.20
2018-05-16T13:43:05.109Z,2.00
2018-05-16T13:45:32.680Z,2.10
2018-05-16T13:48:00.254Z,2.00
2018-05-16T13:50:27.805Z,2.23
2018-05-16T13:52:55.392Z,3.43
2018-05-16T13:55:22.979Z,2.17
2018-05-16T13:57:50.582Z,2.97
2018-05-16T14:00:18.201Z,2.83
2018-05-16T14:02:45.837Z,3.00
2018-05-16T14:05:13.363Z,3.30
2018-05-16T14:07:40.935Z,2.87
2018-05-16T14:10:08.474Z,2.70
2018-05-16T14:12:37.504Z,3.80
2018-05-16T14:15:05.831Z,3.40
2018-05-16T14:17:33.484Z,3.17
2018-05-16T14:20:01.138Z,3.07
2018-05-16T14:22:28.766Z,3.67
2018-05-16T14:24:56.355Z,2.83
2018-05-16T14:27:24.095Z,3.00
2018-05-16T14:29:51.861Z,3.13
2018-05-16T14:32:28.030Z,3.03
2018-05-16T14:34:55.583Z,3.70
2018-05-16T14:37:23.166Z,4.33
2018-05-16T14:39:51.139Z,3.97
2018-05-16T14:42:20.087Z,3.17
2018-05-16T14:44:47.655Z,3.30
2018-05-16T14:47:15.223Z,3.27
2018-05-16T14:49:42.853Z,3.40
2018-05-16T14:52:10.478Z,3.97
2018-05-16T14:54:39.215Z,3.17
2018-05-16T14:57:06.757Z,2.80
2018-05-16T14:59:36.271Z,3.50
2018-05-16T15:02:03.873Z,3.40
2018-05-16T15:04:31.433Z,3.80
2018-05-16T15:06:59.081Z,3.57
2018-05-16T15:09:26.624Z,3.00
2018-05-16T15:11:54.174Z,3.10
2018-05-16T15:14:21.768Z,3.30
2018-05-16T15:16:49.344Z,3.00
2018-05-16T15:19:16.939Z,3.53
2018-05-16T15:21:44.494Z,3.30
2018-05-16T15:24:12.082Z,3.97
2018-05-16T15:26:39.662Z,3.47
2018-05-16T15:29:07.254Z,5.13
2018-05-16T15:31:34.790Z,5.10
2018-05-16T15:34:02.375Z,5.10
2018-05-16T15:36:29.918Z,5.40
2018-05-16T15:38:57.620Z,4.87
2018-05-16T15:41:25.208Z,4.53
2018-05-16T15:43:53.222Z,4.30
2018-05-16T15:46:20.799Z,5.10
2018-05-16T15:48:48.377Z,4.40
2018-05-16T15:51:15.967Z,4.60
2018-05-16T15:53:43.598Z,4.43
2018-05-16T15:56:11.141Z,4.47
2018-05-16T15:58:38.776Z,4.30
2018-05-16T16:01:06.306Z,4.43
2018-05-16T16:03:33.925Z,6.83
2018-05-16T16:06:01.523Z,5.47
2018-05-16T16:08:29.062Z,6.93
2018-05-16T16:10:57.115Z,4.73
2018-05-16T16:13:24.728Z,4.83
2018-05-16T16:15:52.296Z,5.57
2018-05-16T16:18:19.872Z,5.30
2018-05-16T16:20:47.488Z,5.77
2018-05-16T16:23:23.199Z,5.33
2018-05-16T16:25:50.964Z,4.67
2018-05-16T16:28:18.575Z,6.50
2018-05-16T16:30:46.166Z,6.27
2018-05-16T16:33:13.786Z,4.50
2018-05-16T16:35:41.342Z,4.03
2018-05-16T16:38:09.036Z,4.83
2018-05-16T16:40:36.760Z,4.90
2018-05-16T16:43:05.089Z,4.50
2018-05-16T16:45:33.076Z,4.37
2018-05-16T16:48:00.756Z,4.07
2018-05-16T16:50:32.359Z,4.47
2018-05-16T16:53:01.356Z,4.40
2018-05-16T16:55:29.168Z,4.20
2018-05-16T16:58:04.684Z,3.93
2018-05-16T17:00:32.284Z,3.93
2018-05-16T17:03:00.016Z,3.33
2018-05-16T17:05:27.608Z,3.57
2018-05-16T17:07:55.198Z,3.27
2018-05-16T17:10:23.276Z,3.00
2018-05-16T17:12:50.894Z,2.73
2018-05-16T17:15:42.271Z,3.00
2018-05-16T17:18:10.698Z,2.70
2018-05-16T17:20:42.971Z,2.43
2018-05-16T17:23:10.703Z,3.43
2018-05-16T17:25:38.379Z,4.20
2018-05-16T17:28:05.958Z,2.70
2018-05-16T17:30:33.705Z,3.13
2018-05-16T17:33:01.260Z,2.90
2018-05-16T17:35:28.842Z,5.07
2018-05-16T17:37:56.514Z,3.60
2018-05-16T17:40:24.077Z,3.23
2018-05-16T17:42:51.672Z,3.87
2018-05-16T17:45:19.683Z,4.10
2018-05-16T17:47:47.213Z,4.00
2018-05-16T17:50:14.749Z,4.17
2018-05-16T17:52:42.312Z,4.13
2018-05-16T17:55:09.894Z,4.00
2018-05-16T17:57:37.476Z,4.37
2018-05-16T18:00:05.051Z,4.27
2018-05-16T18:02:38.610Z,5.10
2018-05-16T18:05:06.253Z,6.60
2018-05-16T18:07:39.033Z,4.53
2018-05-16T18:10:06.658Z,6.33
2018-05-16T18:12:34.261Z,7.27
2018-05-16T18:15:16.392Z,5.93
2018-05-16T18:17:43.948Z,6.63
2018-05-16T18:20:11.606Z,7.40
2018-05-16T18:22:42.444Z,7.30
2018-05-16T18:25:11.103Z,6.47
2018-05-16T18:27:38.742Z,7.17
2018-05-16T18:30:06.317Z,7.43
2018-05-16T18:32:33.969Z,6.87
2018-05-16T18:35:01.566Z,5.47
2018-05-16T18:37:29.132Z,4.47
2018-05-16T18:39:56.725Z,4.83
2018-05-16T18:42:24.412Z,5.30
2018-05-16T18:44:51.905Z,4.27
2018-05-16T18:47:19.533Z,4.70
2018-05-16T18:49:47.073Z,4.57
2018-05-16T18:52:14.752Z,7.33
2018-05-16T18:54:43.078Z,5.93
2018-05-16T18:57:11.074Z,5.07
2018-05-16T18:59:40.219Z,7.73
2018-05-16T19:02:07.980Z,8.13
2018-05-16T19:04:35.521Z,4.93
2018-05-16T19:07:03.169Z,5.03
2018-05-16T19:09:30.779Z,5.20
2018-05-16T19:11:58.370Z,4.97
2018-05-16T19:14:26.390Z,5.17
2018-05-16T19:16:53.974Z,5.63
2018-05-16T19:19:21.510Z,5.10
2018-05-16T19:21:49.120Z,7.07
2018-05-16T19:24:17.102Z,5.97
2018-05-16T19:26:44.719Z,5.87
2018-05-16T19:29:12.264Z,5.33
2018-05-16T19:31:39.889Z,7.83
2018-05-16T19:34:07.473Z,5.17
2018-05-16T19:36:35.042Z,4.67
2018-05-16T19:39:02.566Z,5.10
2018-05-16T19:41:30.135Z,5.27
2018-05-16T19:43:57.683Z,5.60
2018-05-16T19:46:25.372Z,5.27
2018-05-16T19:48:57.522Z,5.23
2018-05-16T19:51:25.068Z,5.80
2018-05-16T19:53:52.654Z,5.30
2018-05-16T19:56:20.239Z,5.30
2018-05-16T19:58:47.805Z,5.00
2018-05-16T20:01:15.768Z,6.07
2018-05-16T20:03:48.220Z,5.20
2018-05-16T20:06:15.944Z,5.33
2018-05-16T20:08:43.506Z,5.30
2018-05-16T20:11:11.154Z,5.30
2018-05-16T20:13:38.748Z,5.60
2018-05-16T20:16:06.340Z,5.93
2018-05-16T20:18:33.955Z,5.73
2018-05-16T20:21:01.554Z,5.03
2018-05-16T20:23:29.251Z,5.37
2018-05-16T20:25:56.889Z,5.63
2018-05-16T20:28:24.487Z,5.07
2018-05-16T20:30:52.075Z,4.70
2018-05-16T20:33:19.702Z,5.03
2018-05-16T20:35:47.252Z,4.90
2018-05-16T20:38:14.826Z,5.10
2018-05-16T20:40:42.349Z,5.77
2018-05-16T20:43:10.001Z,7.70
2018-05-16T20:45:37.620Z,5.57
2018-05-16T20:48:05.282Z,5.33
2018-05-16T20:50:32.845Z,5.60
2018-05-16T20:53:00.419Z,5.07
2018-05-16T20:55:27.975Z,6.83
2018-05-16T20:57:55.643Z,5.10
2018-05-16T21:00:23.203Z,4.90
2018-05-16T21:02:50.787Z,4.90
2018-05-16T21:05:18.505Z,4.67
2018-05-16T21:07:46.094Z,5.47
2018-05-16T21:10:13.608Z,5.53
2018-05-16T21:12:41.159Z,6.87
2018-05-16T21:15:09.118Z,5.90
2018-05-16T21:17:36.691Z,5.60
2018-05-16T21:20:04.214Z,5.43
2018-05-16T21:22:31.794Z,4.97
2018-05-16T21:24:59.314Z,5.20
2018-05-16T21:27:26.901Z,5.10
2018-05-16T21:29:54.467Z,5.03
2018-05-16T21:32:22.031Z,4.83
2018-05-16T21:34:49.610Z,5.73
2018-05-16T21:37:17.171Z,5.30
2018-05-16T21:39:44.806Z,5.60
2018-05-16T21:42:12.737Z,5.53
2018-05-16T21:44:40.709Z,5.67
2018-05-16T21:47:08.288Z,5.20
2018-05-16T21:49:35.959Z,5.57
2018-05-16T21:52:03.489Z,5.03
2018-05-16T21:54:31.071Z,5.87
2018-05-16T21:56:58.617Z,5.43
2018-05-16T21:59:26.170Z,5.50
2018-05-16T22:01:53.730Z,8.17
2018-05-16T22:04:21.313Z,5.83
2018-05-16T22:06:48.846Z,5.97
2018-05-16T22:09:16.529Z,6.40
2018-05-16T22:11:44.069Z,6.13
2018-05-16T22:14:11.689Z,5.50
2018-05-16T22:16:39.265Z,5.30
2018-05-16T22:19:06.836Z,5.53
2018-05-16T22:21:34.429Z,6.83
2018-05-16T22:24:02.417Z,5.80
2018-05-16T22:26:29.975Z,5.37
2018-05-16T22:28:57.581Z,5.60
2018-05-16T22:31:30.682Z,5.77
2018-05-16T22:34:03.798Z,5.63
2018-05-16T22:36:37.070Z,5.67
2018-05-16T22:39:10.839Z,6.40
2018-05-16T22:41:43.935Z,6.23
2018-05-16T22:44:16.926Z,6.07
2018-05-16T22:46:44.499Z,7.30
2018-05-16T22:49:12.094Z,6.20
2018-05-16T22:51:39.710Z,6.47
2018-05-16T22:54:07.274Z,6.23
2018-05-16T22:56:34.835Z,7.27
2018-05-16T22:59:02.418Z,6.77
2018-05-16T23:01:29.965Z,6.77
2018-05-16T23:03:57.537Z,5.47
2018-05-16T23:06:25.115Z,6.60
2018-05-16T23:08:52.695Z,7.83
2018-05-16T23:11:20.237Z,8.77
2018-05-16T23:13:48.209Z,7.80
2018-05-16T23:16:15.806Z,7.50
2018-05-16T23:18:43.353Z,6.90
2018-05-16T23:21:10.941Z,7.03
2018-05-16T23:23:38.881Z,8.60
2018-05-16T23:26:06.497Z,8.13
2018-05-16T23:28:34.093Z,8.03
2018-05-16T23:31:01.704Z,8.87
2018-05-16T23:33:29.285Z,9.23
2018-05-16T23:35:56.863Z,7.30
2018-05-16T23:38:24.456Z,7.63
2018-05-16T23:40:52.006Z,6.90
2018-05-16T23:43:19.578Z,6.47
2018-05-16T23:45:47.203Z,6.67
2018-05-16T23:48:14.814Z,7.00
2018-05-16T23:50:42.378Z,7.50
2018-05-16T23:53:09.933Z,6.70
2018-05-16T23:55:37.667Z,6.30
2018-05-16T23:58:05.316Z,10.40
